Terminal Aerodrome Forecast
Issued by NWS

Home | Current Version | Previous Version | Text Only | Print | Product List | Glossary On
Versions: 1 2 3 4 5 6 7 8 9 10 11 12 13 14 15 16
184
FTUS46 KPDT 260014 AAA
TAFRDM
TAF AMD
KRDM 260014Z 2600/2624 01008G15KT P6SM FEW090 BKN200
     FM260800 VRB04KT P6SM BKN200
     FM262000 34010KT P6SM SCT080 BKN200=

USA.gov is the U.S. government's official web portal to all federal, state and local government web resources and services.